Big Bear Station Historical Data
Daily Summary for April 8, 2017 Units:  English    Metric   Both
« Previous Day
Next Day »
Daily Weekly Monthly Yearly Custom
  High: Low: Average:
Temperature: 48.9 °F 30.4 °F 40 °F
Dew Point: 38.9 °F 5.8 °F 29.9 °F
Humidity: 98 % 22 % 70 %
Wind Speed: 9.4 mph 0.0 mph 2.9 mph
Wind Gust: -999.0 mph - -
Wind:- - WSW
Pressure: 30.09 in 30.00 in -
Precipitation: 0.13 in    
Historical Graphs
 
 
Tabular Data for April 8, 2017
Time Temperature Dew Point Pressure Wind Wind Speed Wind Gust Humidity Rainfall Rate (Hourly)
00:09 41.9 °F 5.8 °F 30.07 in North 1.7 mph -999.0 mph 22 % 0 in
00:24 41.9 °F 7.7 °F 30.07 in SSE 3.7 mph -999.0 mph 24 % 0 in
00:39 41.9 °F 10.3 °F 30.07 in WSW 3.7 mph -999.0 mph 27 % 0 in
00:55 41.7 °F 9.3 °F 30.06 in SSE 2.7 mph -999.0 mph 26 % 0 in
01:10 41.7 °F 11.0 °F 30.06 in South 3.7 mph -999.0 mph 28 % 0 in
01:25 41.2 °F 8.9 °F 30.06 in SSE 2.2 mph -999.0 mph 26 % 0 in
01:40 41.2 °F 13.5 °F 30.06 in SSE 4.2 mph -999.0 mph 32 % 0 in
01:56 40.8 °F 18.3 °F 30.06 in West 3.2 mph -999.0 mph 40 % 0 in
02:12 40.8 °F 20.0 °F 30.06 in SE 4.2 mph -999.0 mph 43 % 0 in
02:27 40.1 °F 15.9 °F 30.06 in SE 2.2 mph -999.0 mph 37 % 0 in
02:43 39.2 °F 20.1 °F 30.05 in North 2.7 mph -999.0 mph 46 % 0 in
02:58 39.4 °F 23.7 °F 30.05 in SE 4.7 mph -999.0 mph 53 % 0 in
03:13 38.3 °F 27.6 °F 30.05 in SW 2.2 mph -999.0 mph 65 % 0 in
03:28 37.2 °F 30.7 °F 30.05 in SSW 1.1 mph -999.0 mph 77 % 0 in
03:43 36.5 °F 32.1 °F 30.05 in NW 2.7 mph -999.0 mph 84 % 0 in
03:59 35.6 °F 31.8 °F 30.05 in Calm   -999.0 mph 86 % 0 in
04:14 35.1 °F 32.5 °F 30.05 in WNW 2.2 mph -999.0 mph 90 % 0 in
04:29 34.5 °F 32.4 °F 30.05 in NW 2.2 mph -999.0 mph 92 % 0 in
04:44 35.1 °F 33.5 °F 30.05 in Calm   -999.0 mph 94 % 0 in
04:59 35.6 °F 34.3 °F 30.05 in Calm   -999.0 mph 95 % 0 in
05:15 36.7 °F 35.7 °F 30.05 in WSW 2.7 mph -999.0 mph 96 % 0 in
05:30 39.0 °F 38.5 °F 30.05 in Calm   -999.0 mph 98 % 0 in
05:45 39.2 °F 38.7 °F 30.04 in SSE 2.2 mph -999.0 mph 98 % 0 in
06:00 39.4 °F 38.9 °F 30.04 in NW 3.7 mph -999.0 mph 98 % 0 in
06:15 38.8 °F 38.0 °F 30.05 in South 2.2 mph -999.0 mph 97 % 0 in
06:31 38.3 °F 37.3 °F 30.06 in West 3.7 mph -999.0 mph 96 % 0 in
06:46 37.0 °F 35.4 °F 30.06 in NNW 2.7 mph -999.0 mph 94 % 0 in
07:01 36.9 °F 34.8 °F 30.06 in SW 3.7 mph -999.0 mph 92 % 0 in
07:16 36.5 °F 33.6 °F 30.06 in SSE 3.7 mph -999.0 mph 89 % 0 in
07:32 36.7 °F 33.2 °F 30.06 in Calm   -999.0 mph 87 % 0 in
07:47 37.0 °F 34.3 °F 30.07 in SE 2.2 mph -999.0 mph 90 % 0 in
08:02 37.8 °F 33.7 °F 30.07 in NNW 2.2 mph -999.0 mph 85 % 0 in
08:17 38.5 °F 35.3 °F 30.07 in NW 4.2 mph -999.0 mph 88 % 0 in
08:32 39.0 °F 35.2 °F 30.07 in NW 1.1 mph -999.0 mph 86 % 0 in
08:48 40.1 °F 36.0 °F 30.07 in NE 1.1 mph -999.0 mph 85 % 0 in
09:03 39.6 °F 34.3 °F 30.08 in NNW 5.3 mph -999.0 mph 81 % 0 in
09:18 39.7 °F 35.0 °F 30.08 in West 2.7 mph -999.0 mph 83 % 0 in
09:34 40.3 °F 34.9 °F 30.08 in SW 1.1 mph -999.0 mph 81 % 0 in
09:49 41.0 °F 35.9 °F 30.08 in WNW 3.2 mph -999.0 mph 82 % 0 in
10:04 41.9 °F 36.2 °F 30.08 in South 1.7 mph -999.0 mph 80 % 0 in
10:19 42.1 °F 34.4 °F 30.08 in SSW 2.7 mph -999.0 mph 74 % 0 in
10:34 43.2 °F 35.1 °F 30.08 in North 2.7 mph -999.0 mph 73 % 0 in
10:50 43.9 °F 34.0 °F 30.09 in NW 7.3 mph -999.0 mph 68 % 0 in
11:05 45.3 °F 33.4 °F 30.09 in South 6.3 mph -999.0 mph 63 % 0 in
11:20 45.0 °F 33.6 °F 30.09 in SSE 2.2 mph -999.0 mph 64 % 0 in
11:36 45.7 °F 32.2 °F 30.08 in SSE 4.7 mph -999.0 mph 59 % 0 in
11:52 47.5 °F 34.3 °F 30.08 in SSE 4.7 mph -999.0 mph 60 % 0 in
12:07 45.3 °F 31.8 °F 30.08 in SW 2.2 mph -999.0 mph 59 % 0 in
12:22 46.9 °F 32.9 °F 30.07 in SE 4.2 mph -999.0 mph 58 % 0 in
12:38 47.1 °F 33.1 °F 30.07 in SW 1.7 mph -999.0 mph 58 % 0 in
12:53 47.8 °F 33.7 °F 30.07 in North 3.7 mph -999.0 mph 58 % 0 in
13:08 48.0 °F 33.5 °F 30.07 in South 4.7 mph -999.0 mph 57 % 0 in
13:23 48.4 °F 33.4 °F 30.06 in NW 6.3 mph -999.0 mph 56 % 0 in
13:38 48.2 °F 32.8 °F 30.05 in SSE 3.2 mph -999.0 mph 55 % 0 in
13:54 48.6 °F 33.2 °F 30.05 in SSE 4.2 mph -999.0 mph 55 % 0 in
14:09 48.9 °F 32.5 °F 30.04 in SSW 3.7 mph -999.0 mph 53 % 0 in
14:24 48.0 °F 31.7 °F 30.04 in NW 6.3 mph -999.0 mph 53 % 0 in
14:39 45.9 °F 28.8 °F 30.03 in East 8.3 mph -999.0 mph 51 % 0 in
14:54 48.6 °F 29.8 °F 30.02 in SE 3.2 mph -999.0 mph 48 % 0 in
15:10 47.7 °F 31.4 °F 30.01 in WSW 9.4 mph -999.0 mph 53 % 0 in
15:25 47.1 °F 30.8 °F 30.02 in WNW 3.2 mph -999.0 mph 53 % 0 in
15:41 47.3 °F 31.5 °F 30.02 in West 9.4 mph -999.0 mph 54 % 0 in
15:56 44.2 °F 32.0 °F 30.02 in East 1.7 mph -999.0 mph 62 % 0 in
16:11 45.3 °F 31.8 °F 30.02 in South 3.2 mph -999.0 mph 59 % 0 in
16:27 46.0 °F 32.5 °F 30.02 in NNW 4.7 mph -999.0 mph 59 % 0 in
16:42 48.0 °F 33.0 °F 30.02 in West 4.7 mph -999.0 mph 56 % 0 in
16:57 48.6 °F 32.7 °F 30.02 in NW 2.2 mph -999.0 mph 54 % 0 in
17:13 47.1 °F 33.9 °F 30.02 in North 5.3 mph -999.0 mph 60 % 0 in
17:28 45.7 °F 33.8 °F 30.01 in West 5.8 mph -999.0 mph 63 % 0 in
17:43 42.3 °F 32.9 °F 30.02 in North 4.7 mph -999.0 mph 69 % 0 in
17:59 40.5 °F 32.5 °F 30.01 in WNW 1.1 mph -999.0 mph 73 % 0 in
18:14 38.8 °F 31.9 °F 30.01 in NNW 2.7 mph -999.0 mph 76 % 0 in
18:29 38.1 °F 32.2 °F 30.01 in WNW 1.7 mph -999.0 mph 79 % 0 in
18:44 37.0 °F 31.1 °F 30.00 in NNW 5.8 mph -999.0 mph 79 % 0 in
18:59 36.3 °F 31.0 °F 30.00 in South 4.2 mph -999.0 mph 81 % 0 in
19:15 35.8 °F 30.8 °F 30.00 in SW 2.7 mph -999.0 mph 82 % 0 in
19:30 35.1 °F 30.2 °F 30.00 in ESE 1.7 mph -999.0 mph 82 % 0 in
19:45 34.5 °F 30.7 °F 30.00 in NW 2.2 mph -999.0 mph 86 % 0 in
20:00 34.0 °F 31.1 °F 30.00 in SW 1.7 mph -999.0 mph 89 % 0 in
20:15 33.4 °F 30.8 °F 30.00 in West 1.7 mph -999.0 mph 90 % 0 in
20:31 33.3 °F 30.1 °F 30.01 in WSW 1.7 mph -999.0 mph 88 % 0 in
20:46 32.9 °F 30.3 °F 30.01 in Calm   -999.0 mph 90 % 0 in
21:01 32.5 °F 28.8 °F 30.01 in Calm   -999.0 mph 86 % 0 in
21:16 32.5 °F 28.2 °F 30.01 in Calm   -999.0 mph 84 % 0 in
21:31 31.8 °F 27.2 °F 30.02 in Calm   -999.0 mph 83 % 0 in
21:47 32.0 °F 26.2 °F 30.01 in Calm   -999.0 mph 79 % 0 in
22:02 31.8 °F 25.7 °F 30.01 in NW 1.7 mph -999.0 mph 78 % 0 in
22:17 32.4 °F 25.7 °F 30.01 in NW 3.7 mph -999.0 mph 76 % 0 in
22:32 32.4 °F 25.0 °F 30.02 in NE 2.2 mph -999.0 mph 74 % 0 in
22:48 33.1 °F 26.4 °F 30.02 in Calm   -999.0 mph 76 % 0 in
23:03 31.8 °F 26.3 °F 30.03 in Calm   -999.0 mph 80 % 0 in
23:18 30.9 °F 27.2 °F 30.04 in East 1.1 mph -999.0 mph 86 % 0 in
23:33 30.4 °F 27.0 °F 30.04 in Calm   -999.0 mph 87 % 0 in
23:48 31.5 °F 27.8 °F 30.05 in North 4.7 mph -999.0 mph 86 % 0 in
Big Bear CA Weather
Compliments of Weather Underground - 1.5 mb